Time;durP1;ratioP1;P1;durP2;ratioP2;P2;SDS_P1;SDS_P2;PMS_P1;PMS_P2;Temp;Humidity;BMP_temperature;BMP_pressure;BME280_temperature;BME280_humidity;BME280_pressure;Samples;Min_cycle;Max_cycle;Signal;HPM_P1;HPM_P2
2023/12/18 00:01:24;;;;;;;20.10;11.32;;;5.20;99.90;;;;;;5050406;28;20033;-84
2023/12/18 00:03:49;;;;;;;20.00;10.93;;;5.30;99.90;;;;;;5050599;28;20021;-84
2023/12/18 00:06:15;;;;;;;19.73;10.68;;;5.30;99.90;;;;;;5049013;28;20514;-84
2023/12/18 00:08:40;;;;;;;23.63;11.27;;;5.20;99.90;;;;;;5049506;28;20412;-83
2023/12/18 00:11:06;;;;;;;22.45;10.45;;;5.30;99.90;;;;;;5031585;28;20024;-92
2023/12/18 00:13:31;;;;;;;18.17;11.05;;;5.40;99.90;;;;;;5031842;28;20025;-94
2023/12/18 00:15:57;;;;;;;19.00;10.52;;;5.20;99.90;;;;;;5031707;28;20103;-85
2023/12/18 00:18:23;;;;;;;19.02;11.30;;;5.30;99.90;;;;;;5031582;28;20058;-85
2023/12/18 00:20:50;;;;;;;22.95;10.65;;;5.20;99.90;;;;;;5049791;28;20099;-85
2023/12/18 00:23:16;;;;;;;19.40;10.80;;;5.00;99.90;;;;;;5049527;28;20021;-86
2023/12/18 00:25:43;;;;;;;21.40;10.65;;;5.30;99.90;;;;;;5048756;28;20299;-84
2023/12/18 00:28:08;;;;;;;22.40;10.73;;;5.00;99.90;;;;;;5049201;28;20029;-87
2023/12/18 00:30:34;;;;;;;20.75;10.85;;;5.00;99.90;;;;;;5049764;28;20159;-84
2023/12/18 00:33:00;;;;;;;20.77;11.65;;;5.40;99.90;;;;;;5050632;28;20036;-84
2023/12/18 00:35:25;;;;;;;20.30;10.73;;;5.30;99.90;;;;;;5051216;28;20029;-83
2023/12/18 00:37:51;;;;;;;19.40;10.43;;;4.90;99.90;;;;;;5052580;28;20036;-89
2023/12/18 00:40:16;;;;;;;17.42;10.77;;;5.40;99.90;;;;;;5049574;28;20096;-85
2023/12/18 00:42:42;;;;;;;17.60;10.63;;;5.10;99.90;;;;;;5031761;28;20112;-93
2023/12/18 00:45:08;;;;;;;22.40;10.75;;;5.30;99.90;;;;;;5048978;28;20021;-84
2023/12/18 00:47:33;;;;;;;20.85;11.02;;;5.50;99.90;;;;;;5049051;28;20025;-84
2023/12/18 00:49:59;;;;;;;20.10;10.77;;;5.40;99.90;;;;;;5049013;28;20029;-84
2023/12/18 00:52:24;;;;;;;18.85;10.32;;;5.40;99.90;;;;;;5049114;28;20108;-85
2023/12/18 00:54:50;;;;;;;18.83;10.80;;;5.30;99.90;;;;;;5047156;28;20028;-84
2023/12/18 00:57:16;;;;;;;21.80;11.13;;;5.50;99.90;;;;;;5027431;28;20026;-84
2023/12/18 00:59:41;;;;;;;18.25;10.38;;;5.50;99.90;;;;;;5028978;28;20112;-84
2023/12/18 01:02:07;;;;;;;18.02;10.18;;;5.10;99.90;;;;;;5028798;28;20069;-84
2023/12/18 01:04:32;;;;;;;20.13;10.40;;;5.00;99.90;;;;;;5029104;28;20029;-84
2023/12/18 01:06:58;;;;;;;23.83;11.40;;;5.20;99.90;;;;;;5031900;28;20492;-84
2023/12/18 01:09:24;;;;;;;21.65;11.23;;;5.50;99.90;;;;;;5049318;28;20037;-84
2023/12/18 01:11:50;;;;;;;22.52;11.63;;;5.20;99.90;;;;;;5031944;28;20032;-84
2023/12/18 01:14:16;;;;;;;21.73;11.20;;;5.50;99.90;;;;;;5048757;28;20484;-84
2023/12/18 01:16:42;;;;;;;22.35;11.38;;;4.90;99.90;;;;;;5048719;28;20029;-84
2023/12/18 01:19:07;;;;;;;24.38;12.40;;;5.40;99.90;;;;;;5048766;28;20108;-84
2023/12/18 01:21:34;;;;;;;24.13;11.10;;;5.50;99.90;;;;;;5048678;28;20535;-84
2023/12/18 01:24:00;;;;;;;21.02;10.82;;;4.90;99.90;;;;;;5048258;28;20056;-90
2023/12/18 01:26:25;;;;;;;19.17;10.95;;;5.60;99.90;;;;;;5049107;28;20053;-83
2023/12/18 01:28:51;;;;;;;24.02;10.45;;;6.80;99.90;;;;;;5049436;28;20400;-85
2023/12/18 01:31:23;;;;;;;23.23;11.20;;;5.00;99.90;;;;;;5048809;28;20048;-92
2023/12/18 01:33:51;;;;;;;21.38;11.27;;;5.50;99.90;;;;;;5048731;28;20029;-93
2023/12/18 01:36:17;;;;;;;19.77;10.65;;;5.20;99.90;;;;;;5048754;28;20017;-84
2023/12/18 01:38:43;;;;;;;18.75;10.55;;;5.60;99.90;;;;;;5052329;28;20107;-85
2023/12/18 01:41:08;;;;;;;19.20;10.68;;;5.50;99.90;;;;;;5052456;28;20024;-85
2023/12/18 01:43:34;;;;;;;17.27;10.27;;;5.40;99.90;;;;;;5038056;28;20045;-85
2023/12/18 01:46:01;;;;;;;19.80;10.55;;;4.90;99.90;;;;;;5031082;28;20121;-83
2023/12/18 01:48:28;;;;;;;23.00;10.68;;;5.00;99.90;;;;;;5032281;28;20047;-85
2023/12/18 01:50:54;;;;;;;20.75;10.70;;;6.80;99.90;;;;;;5031571;28;20022;-86
2023/12/18 01:53:22;;;;;;;17.77;9.88;;;5.10;99.90;;;;;;5030988;28;20120;-85
2023/12/18 01:55:49;;;;;;;20.40;11.05;;;5.10;99.90;;;;;;5032339;28;20058;-92
2023/12/18 01:58:14;;;;;;;22.00;11.20;;;5.60;99.90;;;;;;5032166;28;20033;-89
2023/12/18 02:00:41;;;;;;;21.55;10.55;;;5.50;99.90;;;;;;5032225;28;20018;-83
2023/12/18 02:03:10;;;;;;;20.23;9.98;;;5.70;99.90;;;;;;5048182;28;20408;-83
2023/12/18 02:05:37;;;;;;;19.05;10.45;;;5.50;99.90;;;;;;5052013;28;20029;-85
2023/12/18 02:08:04;;;;;;;16.67;9.77;;;5.60;99.90;;;;;;5050814;28;20029;-83
2023/12/18 02:10:30;;;;;;;19.02;10.00;;;5.60;99.90;;;;;;5051501;28;20100;-84
2023/12/18 02:12:56;;;;;;;20.20;9.65;;;5.70;99.90;;;;;;5052624;28;20151;-84
2023/12/18 02:15:21;;;;;;;19.08;10.52;;;5.70;99.90;;;;;;5051589;28;20514;-84
2023/12/18 02:17:47;;;;;;;20.17;10.43;;;5.70;99.90;;;;;;5051810;28;20130;-84
2023/12/18 02:20:13;;;;;;;17.92;9.43;;;5.70;99.90;;;;;;5051602;28;20029;-84
2023/12/18 02:22:47;;;;;;;19.35;9.45;;;5.80;99.90;;;;;;5051236;28;20393;-92
2023/12/18 02:25:16;;;;;;;17.90;10.23;;;6.80;99.90;;;;;;5051435;28;20021;-84
2023/12/18 02:27:44;;;;;;;18.63;9.98;;;5.80;99.90;;;;;;5051567;28;20033;-84
2023/12/18 02:30:13;;;;;;;;;;;5.80;99.90;;;;;;5051920;28;20506;-84
2023/12/18 02:32:39;;;;;;;17.00;9.48;;;5.80;99.90;;;;;;5051562;28;19905;-85
2023/12/18 02:35:06;;;;;;;17.15;9.27;;;5.10;99.90;;;;;;5051366;28;20071;-86
2023/12/18 02:37:31;;;;;;;17.38;9.75;;;5.80;99.90;;;;;;5033308;28;20031;-85
2023/12/18 02:39:57;;;;;;;17.90;9.77;;;5.80;99.90;;;;;;5052201;28;20099;-85
2023/12/18 02:42:22;;;;;;;16.35;9.35;;;5.10;99.90;;;;;;5051235;28;20028;-94
2023/12/18 02:44:49;;;;;;;16.02;9.18;;;5.60;99.90;;;;;;5051267;28;20610;-85
2023/12/18 02:47:14;;;;;;;15.98;9.55;;;5.40;99.90;;;;;;5033304;28;20028;-85
2023/12/18 02:49:40;;;;;;;18.50;9.80;;;5.80;99.90;;;;;;5050605;28;20040;-84
2023/12/18 02:52:05;;;;;;;17.48;9.23;;;5.30;99.90;;;;;;5051096;28;20058;-86
2023/12/18 02:54:31;;;;;;;15.75;9.57;;;5.40;99.90;;;;;;5050978;28;20485;-85
2023/12/18 02:56:56;;;;;;;15.35;9.45;;;5.50;99.90;;;;;;5051562;28;20024;-94
2023/12/18 02:59:22;;;;;;;19.08;9.23;;;5.80;99.90;;;;;;5051173;28;20017;-85
2023/12/18 03:01:48;;;;;;;18.92;9.13;;;5.30;99.90;;;;;;5050884;28;20037;-84
2023/12/18 03:04:18;;;;;;;14.13;8.70;;;6.00;99.90;;;;;;5050872;28;20090;-84
2023/12/18 03:06:45;;;;;;;15.95;8.82;;;5.50;99.90;;;;;;5050919;28;20032;-91
2023/12/18 03:09:10;;;;;;;16.42;8.65;;;5.50;99.90;;;;;;5050797;28;20171;-84
2023/12/18 03:11:36;;;;;;;15.48;8.70;;;6.00;99.90;;;;;;5050882;28;20097;-88
2023/12/18 03:14:02;;;;;;;13.20;8.20;;;6.90;99.90;;;;;;5051279;28;20021;-84
2023/12/18 03:16:27;;;;;;;17.13;9.00;;;5.50;99.90;;;;;;5051690;28;20448;-91
2023/12/18 03:18:53;;;;;;;15.38;9.23;;;6.00;99.90;;;;;;5033317;28;20028;-91
2023/12/18 03:21:18;;;;;;;15.30;8.82;;;6.00;99.90;;;;;;5050535;28;20492;-85
2023/12/18 03:23:44;;;;;;;15.93;9.10;;;5.40;99.90;;;;;;5050458;28;20131;-94
2023/12/18 03:26:09;;;;;;;15.75;8.98;;;6.10;99.90;;;;;;5049620;28;20115;-89
2023/12/18 03:28:35;;;;;;;15.55;9.15;;;6.10;99.90;;;;;;5066600;28;20032;-92
2023/12/18 03:31:01;;;;;;;14.77;9.23;;;6.10;99.90;;;;;;5073725;28;20024;-87
2023/12/18 03:33:26;;;;;;;14.75;9.38;;;6.00;99.90;;;;;;5056811;28;20091;-90
2023/12/18 03:35:52;;;;;;;15.63;8.77;;;5.50;99.90;;;;;;5055657;28;20230;-90
2023/12/18 03:38:17;;;;;;;15.13;9.43;;;5.70;99.90;;;;;;5052217;28;20039;-86
2023/12/18 03:40:43;;;;;;;14.98;9.35;;;5.50;99.90;;;;;;5050155;28;20063;-85
2023/12/18 03:43:08;;;;;;;15.68;9.35;;;5.60;99.90;;;;;;5032368;28;20400;-85
2023/12/18 03:45:34;;;;;;;13.95;8.60;;;6.10;99.90;;;;;;5050155;28;20024;-83
2023/12/18 03:47:59;;;;;;;16.38;8.85;;;6.10;99.90;;;;;;5050967;28;20020;-85
2023/12/18 03:50:26;;;;;;;13.20;8.10;;;5.30;99.90;;;;;;5049931;28;20025;-85
2023/12/18 03:52:51;;;;;;;17.88;9.38;;;5.40;99.90;;;;;;5049679;28;20446;-85
2023/12/18 03:55:17;;;;;;;15.18;8.98;;;6.00;99.90;;;;;;5049896;28;20113;-85
2023/12/18 03:57:42;;;;;;;17.08;8.90;;;6.20;99.90;;;;;;5049761;28;20481;-85
2023/12/18 04:00:09;;;;;;;14.15;8.77;;;5.90;99.90;;;;;;5049778;28;20017;-89
2023/12/18 04:02:34;;;;;;;16.42;8.70;;;6.20;99.90;;;;;;5049616;28;20400;-85
2023/12/18 04:05:00;;;;;;;14.27;8.55;;;6.10;99.90;;;;;;5050366;28;20024;-85
2023/12/18 04:07:25;;;;;;;13.75;8.63;;;5.50;99.90;;;;;;5049375;28;20463;-90
2023/12/18 04:09:51;;;;;;;13.85;8.40;;;6.10;99.90;;;;;;5049623;28;20029;-93
2023/12/18 04:12:16;;;;;;;14.07;7.95;;;6.20;99.90;;;;;;5049543;28;20079;-84
2023/12/18 04:14:43;;;;;;;12.55;7.72;;;6.20;99.90;;;;;;5049739;28;20107;-85
2023/12/18 04:17:08;;;;;;;15.82;8.55;;;7.40;99.90;;;;;;5049477;28;20028;-85
2023/12/18 04:19:34;;;;;;;12.43;8.20;;;6.30;99.90;;;;;;5049956;28;20025;-86
2023/12/18 04:22:00;;;;;;;15.38;8.57;;;5.90;99.90;;;;;;5031638;28;20025;-93
2023/12/18 04:24:25;;;;;;;13.88;8.10;;;5.90;99.90;;;;;;5050281;28;20029;-88
2023/12/18 04:26:51;;;;;;;11.57;8.13;;;6.30;99.90;;;;;;5049673;28;20514;-84
2023/12/18 04:29:17;;;;;;;14.60;8.20;;;6.30;99.90;;;;;;5050118;28;20059;-84
2023/12/18 04:31:44;;;;;;;11.03;7.13;;;6.40;99.90;;;;;;5068385;28;20068;-84
2023/12/18 04:34:09;;;;;;;15.00;7.80;;;6.20;99.90;;;;;;5069245;28;20060;-84
2023/12/18 04:36:39;;;;;;;10.95;7.25;;;6.10;99.90;;;;;;5035580;28;20079;-84
2023/12/18 04:39:05;;;;;;;12.07;7.97;;;6.00;99.90;;;;;;5050051;28;20025;-84
2023/12/18 04:41:30;;;;;;;11.85;8.23;;;5.70;99.90;;;;;;5050841;28;20025;-84
2023/12/18 04:43:56;;;;;;;18.52;8.32;;;5.90;99.90;;;;;;5048922;28;20028;-84
2023/12/18 04:46:22;;;;;;;12.70;6.97;;;6.40;99.90;;;;;;5048957;28;20021;-91
2023/12/18 04:48:47;;;;;;;9.98;6.97;;;6.10;99.90;;;;;;5026474;28;20037;-84
2023/12/18 04:51:13;;;;;;;12.32;7.18;;;6.20;99.90;;;;;;5027589;28;20025;-91
2023/12/18 04:53:40;;;;;;;12.50;7.22;;;6.50;99.90;;;;;;5045046;28;20104;-84
2023/12/18 04:56:06;;;;;;;11.77;7.55;;;6.50;99.90;;;;;;5045487;28;20523;-84
2023/12/18 04:58:35;;;;;;;10.98;7.15;;;6.50;99.90;;;;;;5055903;28;20017;-84
2023/12/18 05:01:04;;;;;;;10.45;6.88;;;6.20;99.90;;;;;;5060767;28;20421;-87
2023/12/18 05:03:30;;;;;;;8.88;6.63;;;5.90;99.90;;;;;;5063585;28;20574;-85
2023/12/18 05:05:55;;;;;;;12.63;7.68;;;6.00;99.90;;;;;;5067720;28;20108;-85
2023/12/18 05:08:21;;;;;;;13.88;6.97;;;6.60;99.90;;;;;;5057687;28;20036;-93
2023/12/18 05:10:46;;;;;;;10.40;7.10;;;6.30;99.90;;;;;;5066861;28;20096;-85
2023/12/18 05:13:12;;;;;;;9.10;6.80;;;5.70;99.90;;;;;;5067757;28;20040;-84
2023/12/18 05:15:40;;;;;;;9.95;6.93;;;6.00;99.90;;;;;;5071928;28;20056;-86
2023/12/18 05:18:06;;;;;;;11.70;6.50;;;6.20;99.90;;;;;;5071814;28;20032;-85
2023/12/18 05:20:31;;;;;;;11.40;6.60;;;6.70;99.90;;;;;;5056077;28;20035;-85
2023/12/18 05:22:57;;;;;;;10.35;6.28;;;5.80;99.90;;;;;;5052135;28;20063;-85
2023/12/18 05:25:22;;;;;;;9.77;6.30;;;6.20;99.90;;;;;;5051717;28;20025;-85
2023/12/18 05:27:48;;;;;;;9.93;6.28;;;5.90;99.90;;;;;;5052660;28;20033;-92
2023/12/18 05:30:14;;;;;;;9.52;6.40;;;6.40;99.90;;;;;;5052543;28;20037;-84
2023/12/18 05:32:39;;;;;;;8.57;6.15;;;6.70;99.90;;;;;;5051888;28;20100;-84
2023/12/18 05:35:05;;;;;;;10.15;6.63;;;6.20;99.90;;;;;;5052734;28;20116;-86
2023/12/18 05:37:31;;;;;;;9.90;6.32;;;6.70;99.90;;;;;;5051981;28;20384;-85
2023/12/18 05:39:56;;;;;;;11.32;6.28;;;6.70;99.90;;;;;;5034655;28;20491;-84
2023/12/18 05:42:22;;;;;;;8.48;6.38;;;6.70;99.90;;;;;;5052551;28;20096;-89
2023/12/18 05:44:47;;;;;;;10.65;6.57;;;6.20;99.90;;;;;;5052286;28;20132;-83
2023/12/18 05:47:13;;;;;;;9.55;6.30;;;6.80;99.90;;;;;;5034165;28;20025;-89
2023/12/18 05:49:39;;;;;;;9.10;6.55;;;6.10;99.90;;;;;;5051203;28;20048;-90
2023/12/18 05:52:04;;;;;;;11.80;6.53;;;6.60;99.90;;;;;;5037555;28;20031;-84
2023/12/18 05:54:30;;;;;;;7.13;5.53;;;6.80;99.90;;;;;;5048839;28;20040;-83
2023/12/18 05:56:56;;;;;;;12.27;6.57;;;6.80;99.90;;;;;;5050843;28;20024;-85
2023/12/18 05:59:22;;;;;;;9.38;6.65;;;6.80;99.90;;;;;;5050883;28;20021;-89
2023/12/18 06:01:47;;;;;;;7.55;5.85;;;6.80;99.90;;;;;;5050547;28;20061;-89
2023/12/18 06:04:13;;;;;;;9.55;6.25;;;7.90;99.90;;;;;;5050725;28;20029;-90
2023/12/18 06:06:40;;;;;;;10.88;6.43;;;6.90;99.90;;;;;;5051935;28;20025;-89
2023/12/18 06:09:05;;;;;;;10.20;6.70;;;7.50;99.90;;;;;;5033687;28;20094;-90
2023/12/18 06:11:33;;;;;;;9.27;6.53;;;6.40;99.90;;;;;;5050908;28;20028;-89
2023/12/18 06:13:58;;;;;;;9.05;6.47;;;6.80;99.90;;;;;;5033122;28;20100;-89
2023/12/18 06:16:24;;;;;;;11.02;6.80;;;6.20;99.90;;;;;;5046418;28;20104;-88
2023/12/18 06:18:50;;;;;;;12.00;5.80;;;6.40;99.90;;;;;;5050763;28;20029;-89
2023/12/18 06:21:15;;;;;;;10.32;6.57;;;6.90;99.90;;;;;;5050426;28;20511;-83
2023/12/18 06:23:43;;;;;;;8.77;6.25;;;6.90;99.90;;;;;;5042113;28;20044;-83
2023/12/18 06:26:09;;;;;;;8.80;5.85;;;7.50;99.90;;;;;;5031191;28;20013;-84
2023/12/18 06:28:35;;;;;;;10.05;6.18;;;7.30;99.90;;;;;;5052037;28;20052;-84
2023/12/18 06:31:00;;;;;;;10.70;5.95;;;6.50;99.90;;;;;;5051495;28;20029;-91
2023/12/18 06:33:26;;;;;;;11.52;6.80;;;6.50;99.90;;;;;;5050226;28;20843;-90
2023/12/18 06:35:52;;;;;;;9.35;6.30;;;7.30;99.90;;;;;;5051514;28;20040;-85
2023/12/18 06:38:17;;;;;;;13.73;6.80;;;6.60;99.90;;;;;;5051192;28;20101;-84
2023/12/18 06:40:43;;;;;;;10.10;7.10;;;6.90;99.90;;;;;;5051307;28;20029;-83
2023/12/18 06:43:09;;;;;;;10.80;6.97;;;6.40;99.90;;;;;;5052165;28;20025;-83
2023/12/18 06:45:34;;;;;;;9.98;6.15;;;6.70;99.90;;;;;;5051125;28;20025;-83
2023/12/18 06:48:00;;;;;;;9.23;6.90;;;6.40;99.90;;;;;;5051061;28;20033;-84
2023/12/18 06:50:25;;;;;;;10.00;6.68;;;6.90;99.90;;;;;;5050860;28;20405;-83
2023/12/18 06:52:51;;;;;;;9.93;7.03;;;6.90;99.90;;;;;;5051119;28;20459;-83
2023/12/18 06:55:17;;;;;;;11.85;7.22;;;6.30;99.90;;;;;;5051038;28;20464;-83
2023/12/18 06:57:42;;;;;;;10.80;6.28;;;6.30;99.90;;;;;;5050989;28;20017;-83
2023/12/18 07:00:09;;;;;;;11.85;7.13;;;8.20;99.90;;;;;;5051821;28;20104;-83
2023/12/18 07:02:34;;;;;;;11.98;6.75;;;6.90;99.90;;;;;;5050699;28;20500;-84
2023/12/18 07:05:00;;;;;;;10.77;6.70;;;7.80;99.90;;;;;;5050920;28;20075;-84
2023/12/18 07:07:25;;;;;;;11.50;6.78;;;6.50;99.90;;;;;;5050725;28;20425;-83
2023/12/18 07:09:51;;;;;;;10.35;6.82;;;6.20;99.90;;;;;;5050731;28;20040;-83
2023/12/18 07:12:17;;;;;;;13.07;7.78;;;6.50;99.90;;;;;;5050782;28;20021;-83
2023/12/18 07:14:43;;;;;;;14.55;8.20;;;6.70;99.90;;;;;;5050668;28;20366;-83
2023/12/18 07:17:09;;;;;;;15.63;8.48;;;6.90;99.90;;;;;;5051345;28;20032;-84
2023/12/18 07:19:38;;;;;;;10.48;7.65;;;6.60;99.90;;;;;;5050659;28;20103;-84
2023/12/18 07:22:04;;;;;;;10.52;7.60;;;6.50;99.90;;;;;;5050566;28;20051;-83
2023/12/18 07:24:29;;;;;;;14.70;7.90;;;6.20;99.90;;;;;;5049159;28;20120;-84
2023/12/18 07:26:55;;;;;;;10.88;7.00;;;7.70;99.90;;;;;;5050545;28;20100;-83
2023/12/18 07:29:21;;;;;;;11.02;7.45;;;6.50;99.90;;;;;;5050224;28;20515;-83
2023/12/18 07:31:46;;;;;;;10.80;7.22;;;6.70;99.90;;;;;;5050226;28;20029;-83
2023/12/18 07:34:12;;;;;;;12.75;7.57;;;7.00;99.90;;;;;;5050953;28;20110;-84
2023/12/18 07:36:40;;;;;;;9.60;7.07;;;6.60;99.90;;;;;;5049952;28;20021;-83
2023/12/18 07:39:06;;;;;;;10.40;7.40;;;6.40;99.90;;;;;;5050215;28;20023;-84
2023/12/18 07:41:31;;;;;;;13.30;7.50;;;6.30;99.90;;;;;;5050187;28;20025;-84
2023/12/18 07:43:57;;;;;;;11.85;7.32;;;6.80;99.90;;;;;;5048762;28;20108;-84
2023/12/18 07:46:23;;;;;;;11.13;7.88;;;6.90;99.90;;;;;;5049958;28;20049;-83
2023/12/18 07:48:49;;;;;;;11.40;7.57;;;6.30;99.90;;;;;;5050033;28;20108;-84
2023/12/18 07:51:16;;;;;;;12.93;7.60;;;7.80;99.90;;;;;;5050010;28;20230;-83
2023/12/18 07:53:41;;;;;;;15.32;7.68;;;7.40;99.90;;;;;;5050739;28;20033;-83
2023/12/18 07:56:07;;;;;;;11.13;7.55;;;6.90;99.90;;;;;;5049834;28;20040;-83
2023/12/18 07:58:33;;;;;;;12.30;7.50;;;6.60;99.90;;;;;;5048590;28;20443;-84
2023/12/18 08:00:59;;;;;;;12.13;7.10;;;6.20;99.90;;;;;;5049540;28;20025;-83
2023/12/18 08:03:24;;;;;;;11.25;7.25;;;6.30;99.90;;;;;;5049797;28;20029;-83
2023/12/18 08:05:50;;;;;;;11.73;7.60;;;6.90;99.90;;;;;;5049767;28;20103;-83
2023/12/18 08:08:15;;;;;;;12.52;7.38;;;6.30;99.90;;;;;;5049818;28;20074;-83
2023/12/18 08:10:42;;;;;;;11.88;7.20;;;6.90;99.90;;;;;;5050409;28;20032;-83
2023/12/18 08:13:08;;;;;;;11.88;7.55;;;6.40;99.90;;;;;;5049463;28;20465;-84
2023/12/18 08:15:34;;;;;;;10.43;7.07;;;6.70;99.90;;;;;;5049561;28;20029;-83
2023/12/18 08:17:59;;;;;;;12.52;7.65;;;6.40;99.90;;;;;;5049810;28;20107;-84
2023/12/18 08:20:25;;;;;;;11.48;7.05;;;6.50;99.90;;;;;;5049479;28;20472;-83
2023/12/18 08:22:51;;;;;;;10.40;6.93;;;6.90;99.90;;;;;;5049338;28;20075;-84
2023/12/18 08:25:17;;;;;;;11.40;7.28;;;6.80;99.90;;;;;;5049660;28;20025;-83
2023/12/18 08:27:43;;;;;;;9.98;6.97;;;6.90;99.90;;;;;;5049892;28;20033;-83
2023/12/18 08:30:09;;;;;;;13.55;7.50;;;6.90;99.90;;;;;;5049436;28;20031;-84
2023/12/18 08:32:35;;;;;;;14.20;7.28;;;6.90;99.90;;;;;;5049430;28;20060;-84
2023/12/18 08:35:02;;;;;;;10.27;7.30;;;7.70;99.90;;;;;;5049296;28;20017;-83
2023/12/18 08:37:28;;;;;;;14.18;7.85;;;6.40;99.90;;;;;;5049210;28;20025;-84
2023/12/18 08:39:54;;;;;;;11.50;6.93;;;7.80;99.90;;;;;;5049215;28;20374;-84
2023/12/18 08:42:20;;;;;;;13.00;7.97;;;6.90;99.90;;;;;;5047766;28;20021;-84
2023/12/18 08:44:45;;;;;;;18.23;7.75;;;6.30;99.90;;;;;;5049868;28;20025;-84
2023/12/18 08:47:11;;;;;;;13.82;7.68;;;6.80;99.90;;;;;;5047114;28;20536;-84
2023/12/18 08:49:37;;;;;;;12.57;7.80;;;6.70;99.90;;;;;;5049026;28;20400;-84
2023/12/18 08:52:03;;;;;;;12.75;7.40;;;6.80;99.90;;;;;;5049098;28;20131;-83
2023/12/18 08:54:29;;;;;;;12.27;8.02;;;6.80;99.90;;;;;;5049009;28;20029;-83
2023/12/18 08:56:54;;;;;;;13.75;8.73;;;7.40;99.90;;;;;;5047658;28;20029;-83
2023/12/18 08:59:20;;;;;;;14.25;8.18;;;6.40;99.90;;;;;;5048885;28;20396;-83
2023/12/18 09:01:45;;;;;;;12.45;8.52;;;6.20;99.90;;;;;;5049579;28;20029;-84
2023/12/18 09:04:11;;;;;;;11.43;7.88;;;6.20;99.90;;;;;;5047525;28;20025;-84
2023/12/18 09:06:37;;;;;;;14.27;8.10;;;7.60;99.90;;;;;;5048854;28;20032;-84
2023/12/18 09:09:03;;;;;;;11.02;7.45;;;6.30;99.90;;;;;;5048886;28;20477;-83
2023/12/18 09:11:33;;;;;;;12.63;8.05;;;6.40;99.90;;;;;;5048891;28;20025;-84
2023/12/18 09:13:59;;;;;;;12.07;7.78;;;6.90;99.90;;;;;;5047536;28;20032;-83
2023/12/18 09:16:24;;;;;;;14.18;8.45;;;6.30;99.90;;;;;;5048846;28;20029;-83
2023/12/18 09:18:50;;;;;;;13.35;8.20;;;7.00;99.90;;;;;;5048679;28;20060;-83
2023/12/18 09:21:16;;;;;;;14.50;8.25;;;7.00;99.90;;;;;;5049565;28;20472;-83
2023/12/18 09:23:41;;;;;;;15.57;9.60;;;6.60;99.90;;;;;;5047486;28;20388;-84
2023/12/18 09:26:07;;;;;;;14.50;8.43;;;6.30;99.90;;;;;;5048692;28;20044;-84
2023/12/18 09:28:33;;;;;;;14.60;8.77;;;7.00;99.90;;;;;;5048583;28;20044;-84
2023/12/18 09:30:58;;;;;;;14.50;8.80;;;6.90;99.90;;;;;;5048644;28;20014;-84
2023/12/18 09:33:24;;;;;;;13.15;8.15;;;7.10;99.90;;;;;;5049025;28;20029;-83
2023/12/18 09:35:50;;;;;;;12.32;8.75;;;6.80;99.90;;;;;;5049436;28;20384;-83
2023/12/18 09:38:15;;;;;;;13.88;8.95;;;7.50;99.90;;;;;;5049593;28;20044;-84
2023/12/18 09:40:44;;;;;;;17.35;9.55;;;6.50;99.90;;;;;;5048471;28;20052;-84
2023/12/18 09:43:18;;;;;;;20.55;10.30;;;7.10;99.90;;;;;;5048493;28;20384;-84
2023/12/18 09:45:46;;;;;;;16.58;9.82;;;7.00;99.90;;;;;;5048559;28;20078;-83
2023/12/18 09:48:11;;;;;;;16.95;9.90;;;7.10;99.90;;;;;;5048618;28;20035;-83
2023/12/18 09:50:37;;;;;;;15.63;8.52;;;6.60;99.90;;;;;;5048364;28;20033;-84
2023/12/18 09:53:08;;;;;;;13.88;8.57;;;7.20;99.90;;;;;;5048489;28;20022;-83
2023/12/18 09:55:34;;;;;;;13.25;8.10;;;7.20;99.90;;;;;;5048453;28;20035;-84
2023/12/18 09:58:00;;;;;;;12.20;8.18;;;6.70;99.90;;;;;;5049381;28;20033;-84
2023/12/18 10:00:27;;;;;;;18.40;8.23;;;6.80;99.90;;;;;;5052167;28;20032;-83
2023/12/18 10:02:55;;;;;;;16.27;8.35;;;6.80;99.90;;;;;;5052018;28;20056;-83
2023/12/18 10:05:20;;;;;;;12.60;8.00;;;6.80;99.90;;;;;;5052827;28;20376;-84
2023/12/18 10:07:46;;;;;;;15.15;8.05;;;7.00;99.90;;;;;;5051797;28;20033;-84
2023/12/18 10:10:12;;;;;;;12.45;8.15;;;7.30;99.90;;;;;;5051907;28;20420;-83
2023/12/18 10:12:40;;;;;;;12.10;7.53;;;6.80;99.90;;;;;;5051945;28;20025;-84
2023/12/18 10:15:11;;;;;;;13.40;7.63;;;7.40;99.90;;;;;;5051865;28;20087;-83
2023/12/18 10:17:41;;;;;;;15.57;8.13;;;7.40;99.90;;;;;;5051762;28;20024;-83
2023/12/18 10:20:08;;;;;;;14.75;7.85;;;7.30;99.90;;;;;;5051761;28;20496;-83
2023/12/18 10:22:34;;;;;;;11.35;7.63;;;7.40;99.90;;;;;;5051685;28;20499;-84
2023/12/18 10:24:59;;;;;;;15.10;7.70;;;6.90;99.90;;;;;;5051644;28;20025;-83
2023/12/18 10:27:25;;;;;;;14.68;8.23;;;7.10;99.90;;;;;;5051501;28;20430;-83
2023/12/18 10:29:51;;;;;;;12.38;7.85;;;7.50;99.90;;;;;;5052370;28;20048;-84
2023/12/18 10:32:17;;;;;;;11.15;7.47;;;7.50;99.90;;;;;;5051509;28;20021;-84
2023/12/18 10:34:46;;;;;;;10.73;7.45;;;8.50;99.90;;;;;;5050140;28;20029;-84
2023/12/18 10:37:11;;;;;;;;;;;7.60;99.90;;;;;;5051769;28;20566;-83
2023/12/18 10:39:40;;;;;;;12.68;7.85;;;7.10;99.90;;;;;;5051405;28;19947;-83
2023/12/18 10:42:13;;;;;;;14.00;7.68;;;7.00;99.90;;;;;;5051489;28;20025;-83
2023/12/18 10:44:40;;;;;;;12.95;8.30;;;7.60;99.90;;;;;;5051279;28;20388;-84
2023/12/18 10:47:06;;;;;;;16.80;7.35;;;7.20;99.90;;;;;;5051256;28;20029;-84
2023/12/18 10:49:33;;;;;;;14.55;8.35;;;7.70;99.90;;;;;;5050934;28;20418;-83
2023/12/18 10:51:59;;;;;;;10.50;6.90;;;7.10;99.90;;;;;;5051094;28;20047;-84
2023/12/18 10:54:25;;;;;;;14.25;7.22;;;7.70;99.90;;;;;;5050117;28;20032;-84
2023/12/18 10:56:52;;;;;;;11.98;7.68;;;7.40;99.90;;;;;;5051845;28;20021;-84
2023/12/18 10:59:19;;;;;;;11.02;7.13;;;8.40;99.90;;;;;;5050991;28;20025;-83
2023/12/18 11:01:45;;;;;;;13.70;7.80;;;7.50;99.90;;;;;;5050828;28;20238;-83
2023/12/18 11:04:12;;;;;;;17.73;8.32;;;7.20;99.90;;;;;;5050793;28;20021;-84
2023/12/18 11:06:40;;;;;;;19.02;9.35;;;8.30;99.90;;;;;;5050907;28;20033;-83
2023/12/18 11:09:05;;;;;;;13.85;8.00;;;7.40;99.90;;;;;;5050501;28;20075;-83
2023/12/18 11:11:33;;;;;;;13.05;8.32;;;7.40;99.90;;;;;;5050614;28;20057;-83
2023/12/18 11:14:36;;;;;;;11.73;8.02;;;7.80;99.90;;;;;;5050803;28;20025;-83
2023/12/18 11:17:24;;;;;;;15.68;8.07;;;7.80;99.90;;;;;;5050707;28;20449;-88
2023/12/18 11:20:05;;;;;;;12.48;8.15;;;7.80;99.90;;;;;;5050675;28;20021;-84
2023/12/18 11:22:45;;;;;;;14.20;8.05;;;7.80;99.90;;;;;;5050563;28;20079;-84
2023/12/18 11:25:11;;;;;;;12.20;7.97;;;7.80;99.90;;;;;;5050500;28;20558;-84
2023/12/18 11:27:39;;;;;;;15.40;8.15;;;7.60;99.90;;;;;;5049116;28;20025;-84
2023/12/18 11:30:05;;;;;;;13.77;8.20;;;8.10;99.90;;;;;;5050446;28;20037;-84
2023/12/18 11:32:41;;;;;;;15.35;7.95;;;7.80;99.90;;;;;;5049041;28;20484;-84
2023/12/18 11:35:14;;;;;;;11.20;7.28;;;7.80;99.90;;;;;;5050283;28;20032;-83
2023/12/18 11:37:41;;;;;;;10.88;7.22;;;7.60;99.90;;;;;;5050171;28;20513;-84
2023/12/18 11:40:36;;;;;;;14.00;8.20;;;7.50;99.90;;;;;;5048957;28;20476;-84
2023/12/18 11:43:03;;;;;;;12.02;7.50;;;7.80;99.90;;;;;;5050209;28;20036;-84
2023/12/18 11:45:29;;;;;;;13.70;8.32;;;7.80;99.90;;;;;;5050093;28;20031;-83
2023/12/18 11:48:03;;;;;;;13.90;8.07;;;8.20;99.90;;;;;;5050811;28;20305;-84
2023/12/18 11:50:32;;;;;;;14.27;8.18;;;7.80;99.90;;;;;;5050175;28;20028;-84
2023/12/18 11:52:59;;;;;;;16.38;7.93;;;7.30;99.90;;;;;;5050804;28;20020;-84
2023/12/18 11:55:37;;;;;;;12.13;7.35;;;7.40;99.90;;;;;;5050731;28;20108;-84
2023/12/18 11:58:03;;;;;;;11.82;7.60;;;7.90;99.90;;;;;;5050026;28;20536;-83
2023/12/18 12:00:33;;;;;;;14.23;8.00;;;8.00;99.90;;;;;;5049783;28;20071;-84
2023/12/18 12:03:02;;;;;;;11.95;6.95;;;8.40;99.90;;;;;;5049769;28;20067;-84
2023/12/18 12:05:29;;;;;;;11.80;7.55;;;8.00;99.90;;;;;;5049281;28;20032;-84
2023/12/18 12:07:55;;;;;;;10.55;7.40;;;7.60;99.90;;;;;;5049198;28;20052;-83
2023/12/18 12:10:21;;;;;;;13.02;8.18;;;7.50;99.90;;;;;;5049697;28;20455;-83
2023/12/18 12:12:57;;;;;;;10.85;7.65;;;7.40;99.90;;;;;;5049652;28;20017;-83
2023/12/18 12:15:27;;;;;;;12.38;7.78;;;7.80;99.90;;;;;;5049462;28;20103;-83
2023/12/18 12:18:07;;;;;;;29.83;14.48;;;7.60;99.90;;;;;;5049615;28;20113;-83
2023/12/18 12:20:33;;;;;;;18.50;10.32;;;8.10;99.90;;;;;;5049435;28;20025;-83
2023/12/18 12:22:59;;;;;;;16.17;10.35;;;7.80;99.90;;;;;;5049235;28;20392;-83
2023/12/18 12:25:25;;;;;;;28.73;16.55;;;8.20;99.90;;;;;;5050228;28;20021;-83
2023/12/18 12:27:51;;;;;;;13.98;8.15;;;8.00;99.90;;;;;;5049318;28;20012;-83
2023/12/18 12:30:17;;;;;;;12.98;7.85;;;8.70;99.90;;;;;;5049389;28;20029;-83
2023/12/18 12:32:44;;;;;;;11.65;7.25;;;7.80;99.90;;;;;;5049511;28;20489;-83
2023/12/18 12:35:11;;;;;;;12.75;7.68;;;7.70;99.90;;;;;;5048038;28;20068;-83
2023/12/18 12:37:37;;;;;;;12.80;8.48;;;9.50;99.90;;;;;;5049453;28;20416;-83
2023/12/18 12:40:09;;;;;;;17.60;8.15;;;7.60;99.90;;;;;;5049105;28;20044;-83
2023/12/18 12:42:38;;;;;;;12.60;8.00;;;8.10;99.90;;;;;;5049339;28;20071;-83